20 mei 2022

Tijd Code Weer Temp. Zicht Wolken Wind METAR/SPECI
17:50
V
27 °C 10 km+ - 310°   310° 20 31 kt METAR EDDS 201550Z AUTO 31020G31KT CAVOK 27/14 Q1016 RESHRA
17:20
V
29 °C 10 km+ - 320°   320° 16 kt METAR EDDS 201520Z AUTO 32016KT 9999 SHRA VCTS FEW///CB 29/14 Q1016 RETS TEMPO -SHRA
16:50
V
30 °C 10 km+ - 290°   290° 12 kt METAR EDDS 201450Z AUTO 29012KT CAVOK 30/11 Q1016 TEMPO 24015G25KT SHRA
16:20
V
31 °C 10 km+ - Var   Var 6 kt METAR EDDS 201420Z AUTO VRB06KT CAVOK 31/12 Q1016 TEMPO 24015G25KT
15:50
V
31 °C 10 km+ - 210°   210° 7 kt METAR EDDS 201350Z AUTO 21007KT 150V270 CAVOK 31/12 Q1016 TEMPO 24015G25KT
15:20
V
31 °C 10 km+ - Var   Var 6 kt METAR EDDS 201320Z AUTO VRB06KT CAVOK 31/11 Q1017 TEMPO 24015G25KT
14:50
V
31 °C 10 km+ - 220°   220° 8 kt METAR EDDS 201250Z AUTO 22008KT 170V270 CAVOK 31/11 Q1017 TEMPO 24015G25KT
14:20
V
30 °C 10 km+ - 240°   240° 10 kt METAR EDDS 201220Z AUTO 24010KT 170V270 CAVOK 30/12 Q1018 TEMPO 24015G25KT
13:50
V
30 °C 10 km+ - 230°   230° 8 kt METAR EDDS 201150Z AUTO 23008KT 160V320 CAVOK 30/12 Q1019 TEMPO 24015G25KT
13:20
V
30 °C 10 km+ - 240°   240° 11 kt METAR EDDS 201120Z AUTO 24011KT 170V290 CAVOK 30/12 Q1019 TEMPO 24015G25KT
12:50
V
29 °C 10 km+ - 230°   230° 10 kt METAR EDDS 201050Z AUTO 23010KT 160V300 CAVOK 29/12 Q1020 NOSIG
12:20
V
29 °C 10 km+ - Var   Var 9 kt METAR EDDS 201020Z AUTO VRB09KT CAVOK 29/13 Q1020 NOSIG
11:50
V
28 °C 10 km+ - 240°   240° 9 kt METAR EDDS 200950Z AUTO 24009KT 160V320 CAVOK 28/14 Q1021 NOSIG
11:20
V
28 °C 10 km+ - 230°   230° 6 kt METAR EDDS 200920Z AUTO 23006KT 130V280 CAVOK 28/15 Q1021 NOSIG
10:50
V
27 °C 10 km+ - 220°   220° 4 kt METAR EDDS 200850Z AUTO 22004KT 130V290 CAVOK 27/15 Q1021 BECMG 22008KT
10:20
V
26 °C 10 km+ - Var   Var 1 kt METAR EDDS 200820Z AUTO VRB01KT CAVOK 26/15 Q1022 BECMG 22008KT
09:50
V
25 °C 10 km+ - Var   Var 2 kt METAR EDDS 200750Z AUTO VRB02KT CAVOK 25/15 Q1022 BECMG 22008KT
09:20
V
24 °C 10 km+ - Var   Var 2 kt METAR EDDS 200720Z AUTO VRB02KT CAVOK 24/15 Q1022 NOSIG
08:50
V
23 °C 10 km+ - Var   Var 2 kt METAR EDDS 200650Z AUTO VRB02KT CAVOK 23/15 Q1022 NOSIG
08:20
V
22 °C 10 km+ - Var   Var 1 kt METAR EDDS 200620Z AUTO VRB01KT CAVOK 22/15 Q1022 NOSIG
07:50
V
20 °C 10 km+ - Var   Var 2 kt METAR EDDS 200550Z AUTO VRB02KT CAVOK 20/15 Q1022 NOSIG
07:20
V
18 °C 10 km+ - Var   Var 1 kt METAR EDDS 200520Z AUTO VRB01KT CAVOK 18/15 Q1022 NOSIG
06:50
V
16 °C 10 km+ - 150°   150° 1 kt METAR EDDS 200450Z AUTO 15001KT CAVOK 16/14 Q1022
06:20
V
16 °C 10 km+ - Var   000° 0 kt METAR EDDS 200420Z AUTO 00000KT CAVOK 16/14 Q1022 NOSIG
05:50
V
15 °C 10 km+ - 150°   150° 1 kt METAR EDDS 200350Z AUTO 15001KT CAVOK 15/14 Q1022
05:20
V
15 °C 10 km+ - Var   Var 1 kt METAR EDDS 200320Z AUTO VRB01KT CAVOK 15/14 Q1022
04:50
V
16 °C 10 km+ - Var   Var 2 kt METAR EDDS 200250Z AUTO VRB02KT CAVOK 16/14 Q1022
04:20
V
15 °C 10 km+ - Var   Var 2 kt METAR EDDS 200220Z AUTO VRB02KT CAVOK 15/13 Q1022
03:50
V
17 °C 10 km+ - Var   Var 2 kt METAR EDDS 200150Z AUTO VRB02KT 9999 VCSH FEW///TCU 17/14 Q1022
03:20
V
16 °C 10 km+ - Var   Var 1 kt METAR EDDS 200120Z AUTO VRB01KT CAVOK 16/14 Q1022
02:50
V
16 °C 10 km+ - Var   Var 1 kt METAR EDDS 200050Z AUTO VRB01KT CAVOK 16/14 Q1022
02:20
V
17 °C 10 km+ - Var   Var 1 kt METAR EDDS 200020Z AUTO VRB01KT CAVOK 17/14 Q1022
01:50
V
18 °C 10 km+ - 180°   180° 4 kt METAR EDDS 192350Z AUTO 18004KT 130V230 CAVOK 18/14 Q1023
01:20
V
18 °C 10 km+ - 170°   170° 3 kt METAR EDDS 192320Z AUTO 17003KT 120V210 CAVOK 18/14 Q1023
00:50
V
18 °C 10 km+ - 130°   130° 3 kt METAR EDDS 192250Z AUTO 13003KT 080V190 CAVOK 18/15 Q1023
00:20
V
19 °C 10 km+ - 030°   030° 6 kt METAR EDDS 192220Z AUTO 03006KT 340V070 CAVOK 19/15 Q1024

19 mei 2022

Tijd Code Weer Temp. Zicht Wolken Wind METAR/SPECI
23:50
V
19 °C 10 km+ - 100°   100° 6 kt METAR EDDS 192150Z AUTO 10006KT 060V130 CAVOK 19/15 Q1023
23:20
V
20 °C 10 km+ - 070°   070° 6 kt METAR EDDS 192120Z AUTO 07006KT 030V110 CAVOK 20/15 Q1023
22:50
V
20 °C 10 km+ - 120°   120° 3 kt METAR EDDS 192050Z AUTO 12003KT 070V180 CAVOK 20/15 Q1022
22:20
V
22 °C 10 km+ - Var   Var 2 kt METAR EDDS 192020Z AUTO VRB02KT CAVOK 22/15 Q1022
21:50
V
22 °C 10 km+ - Var   Var 2 kt METAR EDDS 191950Z AUTO VRB02KT CAVOK 22/15 Q1022 NOSIG
21:20
V
23 °C 10 km+ - 210°   210° 4 kt METAR EDDS 191920Z AUTO 21004KT 150V290 CAVOK 23/14 Q1021 NOSIG
20:50
V
24 °C 10 km+ - 270°   270° 10 kt METAR EDDS 191850Z AUTO 27010KT 9999 -SHRA FEW///CB 24/14 Q1021 RETSGR NOSIG
20:20
V
25 °C 10 km+ - 240°   240° 13 23 kt METAR EDDS 191820Z AUTO 24013G23KT 200V270 9999 SHGRRA FEW///CB 25/13 Q1020 TEMPO TSRA
19:50
V
26 °C 10 km+ - 200°   200° 5 kt METAR EDDS 191750Z AUTO 20005KT 160V230 9999 -SHRA VCTS FEW///CB 26/15 Q1020 RESHRA TEMPO TSRA
19:20
V
26 °C 10 km+ - 200°   200° 7 kt METAR EDDS 191720Z AUTO 20007KT 130V250 9999 SHRA FEW///CB 26/15 Q1020 TEMPO 24015G30KT TSRA
18:50
V
27 °C 10 km+ - 180°   180° 7 kt METAR EDDS 191650Z AUTO 18007KT 150V240 9999 VCSH FEW///CB 27/15 Q1020 NOSIG
18:20
V
28 °C 10 km+ - 200°   200° 8 kt METAR EDDS 191620Z AUTO 20008KT 140V260 CAVOK 28/13 Q1020
17:50
V
30 °C 10 km+ - Var   Var 5 kt METAR EDDS 191550Z AUTO VRB05KT CAVOK 30/11 Q1019 NOSIG
17:20
V
29 °C 10 km+ - 230°   230° 10 kt METAR EDDS 191520Z AUTO 23010KT 170V280 CAVOK 29/15 Q1019 NOSIG
16:50
V
30 °C 10 km+ - 240°   240° 9 kt METAR EDDS 191450Z AUTO 24009KT 200V270 CAVOK 30/12 Q1019 TEMPO 24015G30KT TSRA
16:20
V
30 °C 10 km+ - 240°   240° 7 kt METAR EDDS 191420Z AUTO 24007KT 170V300 CAVOK 30/12 Q1019 TEMPO 20015G25KT TSRA
15:50
V
30 °C 10 km+ - 250°   250° 9 kt METAR EDDS 191350Z AUTO 25009KT 190V290 CAVOK 30/12 Q1020 TEMPO 20015G25KT TSRA
15:20
V
30 °C 10 km+ - Var   Var 5 kt METAR EDDS 191320Z AUTO VRB05KT CAVOK 30/12 Q1020
14:50
V
30 °C 10 km+ - 260°   260° 9 kt METAR EDDS 191250Z AUTO 26009KT 200V320 CAVOK 30/13 Q1020
14:20
V
30 °C 10 km+ - 280°   280° 8 kt METAR EDDS 191220Z AUTO 28008KT 230V320 CAVOK 30/13 Q1020 NOSIG
13:50
V
29 °C 10 km+ - Var   Var 4 14 kt METAR EDDS 191150Z AUTO VRB04G14KT CAVOK 29/12 Q1020 NOSIG
13:20
V
28 °C 10 km+ - 300°   300° 5 kt METAR EDDS 191120Z AUTO 30005KT 250V330 CAVOK 28/15 Q1021 NOSIG
12:50
V
28 °C 10 km+ - 260°   260° 6 kt METAR EDDS 191050Z AUTO 26006KT 210V310 CAVOK 28/14 Q1021 NOSIG
12:20
V
27 °C 10 km+ - Var   Var 5 kt METAR EDDS 191020Z AUTO VRB05KT CAVOK 27/14 Q1021
11:50
V
26 °C 10 km+ - Var   Var 4 kt METAR EDDS 190950Z AUTO VRB04KT CAVOK 26/15 Q1021 BECMG 23007KT
11:20
V
26 °C 10 km+ - 090°   090° 4 kt METAR EDDS 190920Z AUTO 09004KT 020V190 CAVOK 26/13 Q1021 NOSIG
10:50
V
25 °C 10 km+ - 100°   100° 4 kt METAR EDDS 190850Z AUTO 10004KT 050V150 CAVOK 25/13 Q1021 NOSIG
10:20
V
23 °C 10 km+ - 130°   130° 4 kt METAR EDDS 190820Z AUTO 13004KT 060V220 CAVOK 23/13 Q1022 NOSIG
09:50
V
22 °C 10 km+ - Var   Var 3 kt METAR EDDS 190750Z AUTO VRB03KT CAVOK 22/12 Q1022 NOSIG
09:20
V
21 °C 10 km+ - 160°   160° 5 kt METAR EDDS 190720Z AUTO 16005KT 110V210 CAVOK 21/11 Q1022 NOSIG
08:50
V
20 °C 10 km+ - 170°   170° 4 kt METAR EDDS 190650Z AUTO 17004KT 100V250 CAVOK 20/11 Q1022 NOSIG
08:20
V
19 °C 10 km+ - 130°   130° 3 kt METAR EDDS 190620Z AUTO 13003KT 080V220 CAVOK 19/11 Q1022 NOSIG
07:50
V
18 °C 10 km+ - Var   Var 2 kt METAR EDDS 190550Z AUTO VRB02KT CAVOK 18/11 Q1021 NOSIG
07:20
V
18 °C 10 km+ - Var   Var 1 kt METAR EDDS 190520Z AUTO VRB01KT CAVOK 18/10 Q1021 NOSIG
06:50
V
16 °C 10 km+ - Var   Var 1 kt METAR EDDS 190450Z AUTO VRB01KT CAVOK 16/11 Q1021 NOSIG
06:20
V
14 °C 10 km+ - 060°   060° 1 kt METAR EDDS 190420Z AUTO 06001KT CAVOK 14/09 Q1021 NOSIG
05:50
V
13 °C 10 km+ - 300°   300° 1 kt METAR EDDS 190350Z AUTO 30001KT CAVOK 13/09 Q1021
05:20
V
13 °C 10 km+ - Var   Var 1 kt METAR EDDS 190320Z AUTO VRB01KT CAVOK 13/09 Q1021
04:50
V
11 °C 10 km+ - Var   000° 0 kt METAR EDDS 190250Z AUTO 00000KT CAVOK 11/08 Q1021
04:20
V
13 °C 10 km+ - Var   Var 1 kt METAR EDDS 190220Z AUTO VRB01KT CAVOK 13/09 Q1021
03:50
V
14 °C 10 km+ - Var   Var 1 kt METAR EDDS 190150Z AUTO VRB01KT CAVOK 14/10 Q1021
03:20
V
14 °C 10 km+ - 250°   250° 1 kt METAR EDDS 190120Z AUTO 25001KT CAVOK 14/11 Q1021
02:50
V
14 °C 10 km+ - Var   Var 1 kt METAR EDDS 190050Z AUTO VRB01KT CAVOK 14/11 Q1021
02:20
V
14 °C 10 km+ - 300°   300° 3 kt METAR EDDS 190020Z AUTO 30003KT 190V330 CAVOK 14/10 Q1022
01:50
V
15 °C 10 km+ - 320°   320° 3 kt METAR EDDS 182350Z AUTO 32003KT 270V360 CAVOK 15/11 Q1022
01:20
V
15 °C 10 km+ - Var   Var 1 kt METAR EDDS 182320Z AUTO VRB01KT CAVOK 15/11 Q1022
00:50
V
18 °C 10 km+ - Var   Var 2 kt METAR EDDS 182250Z AUTO VRB02KT CAVOK 18/11 Q1022
00:20
V
18 °C 10 km+ - 100°   100° 3 kt METAR EDDS 182220Z AUTO 10003KT CAVOK 18/11 Q1022

18 mei 2022

Tijd Code Weer Temp. Zicht Wolken Wind METAR/SPECI
23:50
V
17 °C 10 km+ - Var   Var 2 kt METAR EDDS 182150Z AUTO VRB02KT CAVOK 17/11 Q1022
23:20
V
18 °C 10 km+ - 090°   090° 3 kt METAR EDDS 182120Z AUTO 09003KT 060V160 CAVOK 18/12 Q1022
22:50
V
18 °C 10 km+ - 080°   080° 5 kt METAR EDDS 182050Z AUTO 08005KT CAVOK 18/12 Q1022
22:20
V
19 °C 10 km+ - 090°   090° 5 kt METAR EDDS 182020Z AUTO 09005KT CAVOK 19/12 Q1022
21:50
V
19 °C 10 km+ - 090°   090° 5 kt METAR EDDS 181950Z AUTO 09005KT CAVOK 19/12 Q1022 NOSIG
21:20
V
20 °C 10 km+ - 080°   080° 7 kt METAR EDDS 181920Z AUTO 08007KT CAVOK 20/12 Q1022 NOSIG
20:50
V
22 °C 10 km+ - 090°   090° 6 kt METAR EDDS 181850Z AUTO 09006KT CAVOK 22/12 Q1022 NOSIG
20:20
V
23 °C 10 km+ - 090°   090° 7 kt METAR EDDS 181820Z AUTO 09007KT 060V120 CAVOK 23/12 Q1021 NOSIG
19:50
V
24 °C 10 km+ - 080°   080° 9 kt METAR EDDS 181750Z AUTO 08009KT CAVOK 24/12 Q1021 BECMG 08003KT
19:20
V
25 °C 10 km+ - 080°   080° 11 kt METAR EDDS 181720Z AUTO 08011KT CAVOK 25/12 Q1021 BECMG 08005KT
18:50
V
26 °C 10 km+ - 080°   080° 8 kt METAR EDDS 181650Z AUTO 08008KT CAVOK 26/12 Q1021 NOSIG
18:20
V
26 °C 10 km+ - 080°   080° 11 kt METAR EDDS 181620Z AUTO 08011KT CAVOK 26/11 Q1021 BECMG 11005KT
17:50
V
26 °C 10 km+ - 090°   090° 10 kt METAR EDDS 181550Z AUTO 09010KT 040V150 CAVOK 26/12 Q1021
17:20
V
26 °C 10 km+ - 070°   070° 10 kt METAR EDDS 181520Z AUTO 07010KT CAVOK 26/12 Q1022 BECMG 11005KT
16:50
V
26 °C 10 km+ - 100°   100° 6 kt METAR EDDS 181450Z AUTO 10006KT 060V190 CAVOK 26/12 Q1022 NOSIG
Oudere gegevens

Installeer onze app

Gemakkelijke toegang tot al het luchtvaartweer op je mobiele telefoon en tablet.
Met veel functies die niet op de website beschikbaar zijn, zoals offline ondersteuning en een persoonlijke lijst van vliegvelden.

Met cookies volgen wij en derde partijen jouw internetgedrag binnen onze site. Als je verdergaat gaan we ervan uit dat je dit goedvindt. Meer info